createdAt,value
2019-05-01T00:00:17.297Z,89.849854
2019-05-01T00:01:26.803Z,89.746094
2019-05-01T00:02:36.315Z,89.746094
2019-05-01T00:03:45.823Z,89.648438
2019-05-01T00:04:55.335Z,89.746094
2019-05-01T00:06:04.833Z,89.746094
2019-05-01T00:07:14.354Z,89.849854
2019-05-01T00:08:23.868Z,90.100098
2019-05-01T00:09:33.766Z,90.307617
2019-05-01T00:10:43.101Z,90.411377
2019-05-01T00:11:52.611Z,90.411377
2019-05-01T00:13:02.112Z,90.612793
2019-05-01T00:14:11.627Z,90.612793
2019-05-01T00:15:21.139Z,90.716553
2019-05-01T00:16:30.664Z,90.820312
2019-05-01T00:17:40.193Z,90.716553
2019-05-01T00:18:49.729Z,90.820312
2019-05-01T00:19:59.242Z,90.820312
2019-05-01T00:21:08.740Z,90.966797
2019-05-01T00:22:18.271Z,91.070557
2019-05-01T00:23:27.769Z,91.174316
2019-05-01T00:24:37.283Z,91.278076
2019-05-01T00:25:46.804Z,91.381836
2019-05-01T00:26:56.338Z,91.479492
2019-05-01T00:28:05.841Z,91.479492
2019-05-01T00:29:15.359Z,91.479492
2019-05-01T00:30:29.913Z,91.687012
2019-05-01T00:31:35.331Z,91.687012
2019-05-01T00:32:44.837Z,91.790771
2019-05-01T00:33:54.377Z,91.729736
2019-05-01T00:35:03.905Z,91.833496
2019-05-01T00:36:13.416Z,91.833496
2019-05-01T00:37:23.020Z,91.833496
2019-05-01T00:38:32.553Z,91.833496
2019-05-01T00:39:42.085Z,91.833496
2019-05-01T00:40:51.596Z,91.937256
2019-05-01T00:42:01.114Z,92.041016
2019-05-01T00:43:10.649Z,92.144775
2019-05-01T00:44:20.166Z,92.248535
2019-05-01T00:45:29.690Z,92.248535
2019-05-01T00:46:39.199Z,92.248535
2019-05-01T00:47:48.708Z,92.248535
2019-05-01T00:48:58.233Z,92.144775
2019-05-01T00:50:07.742Z,92.144775
2019-05-01T00:51:17.253Z,92.29126
2019-05-01T00:52:26.765Z,92.39502
2019-05-01T00:53:36.265Z,92.39502
2019-05-01T00:54:45.805Z,92.596436
2019-05-01T00:55:55.330Z,92.700195
2019-05-01T00:57:04.833Z,92.700195
2019-05-01T00:58:14.344Z,92.84668
2019-05-01T00:59:23.898Z,92.84668
2019-05-01T01:00:42.765Z,93.157959
2019-05-01T01:01:43.888Z,93.572998
2019-05-01T01:02:53.389Z,93.780518
2019-05-01T01:04:02.917Z,93.780518
2019-05-01T01:05:12.445Z,93.676758
2019-05-01T01:06:21.971Z,93.676758
2019-05-01T01:07:31.508Z,93.615723
2019-05-01T01:08:41.046Z,93.823242
2019-05-01T01:09:50.619Z,94.030762
2019-05-01T01:11:00.141Z,94.232178
2019-05-01T01:12:09.641Z,94.335938
2019-05-01T01:13:19.162Z,94.439697
2019-05-01T01:14:28.703Z,94.647217
2019-05-01T01:15:38.224Z,94.854736
2019-05-01T01:16:47.752Z,94.854736
2019-05-01T01:17:57.268Z,94.750977
2019-05-01T01:19:06.794Z,94.750977
2019-05-01T01:20:16.329Z,94.793701
2019-05-01T01:21:25.832Z,94.793701
2019-05-01T01:22:35.353Z,94.689941
2019-05-01T01:23:44.866Z,94.586182
2019-05-01T01:24:54.397Z,95.10498
2019-05-01T01:26:03.900Z,95.3125
2019-05-01T01:27:13.426Z,95.41626
2019-05-01T01:28:22.920Z,95.52002
2019-05-01T01:29:32.437Z,95.41626
2019-05-01T01:30:55.120Z,95.3125
2019-05-01T01:31:53.439Z,95.3125
2019-05-01T01:33:02.957Z,95.3125
2019-05-01T01:34:12.480Z,95.3125
2019-05-01T01:35:22.037Z,95.20874
2019-05-01T01:36:31.546Z,95.10498
2019-05-01T01:37:41.083Z,95.001221
2019-05-01T01:38:50.597Z,95.001221
2019-05-01T01:40:00.109Z,94.897461
2019-05-01T01:41:09.630Z,95.001221
2019-05-01T01:42:19.139Z,94.897461
2019-05-01T01:43:28.648Z,94.732666
2019-05-01T01:44:38.164Z,94.732666
2019-05-01T01:45:47.678Z,94.940186
2019-05-01T01:46:57.197Z,95.08667
2019-05-01T01:48:07.712Z,95.19043
2019-05-01T01:49:17.210Z,95.501709
2019-05-01T01:50:26.756Z,95.812988
2019-05-01T01:51:36.258Z,96.020508
2019-05-01T01:52:45.763Z,96.124268
2019-05-01T01:53:55.269Z,96.331787
2019-05-01T01:55:04.802Z,96.435547
2019-05-01T01:56:14.325Z,96.539307
2019-05-01T01:57:23.851Z,96.539307
2019-05-01T01:58:33.389Z,96.435547
2019-05-01T01:59:42.909Z,96.228027
2019-05-01T02:00:52.457Z,96.228027
2019-05-01T02:02:02.958Z,96.331787
2019-05-01T02:03:12.458Z,96.331787
2019-05-01T02:04:21.965Z,96.331787
2019-05-01T02:05:31.501Z,96.228027
2019-05-01T02:06:41.057Z,96.124268
2019-05-01T02:07:50.534Z,96.020508
2019-05-01T02:09:00.032Z,96.124268
2019-05-01T02:10:09.613Z,96.124268
2019-05-01T02:11:19.091Z,96.228027
2019-05-01T02:12:28.609Z,96.228027
2019-05-01T02:13:38.151Z,96.020508
2019-05-01T02:14:47.673Z,95.855713
2019-05-01T02:15:57.188Z,95.648193
2019-05-01T02:17:06.721Z,96.063232
2019-05-01T02:18:16.234Z,96.374512
2019-05-01T02:19:25.764Z,96.374512
2019-05-01T02:20:35.300Z,96.478271
2019-05-01T02:21:44.810Z,96.478271
2019-05-01T02:22:54.313Z,96.478271
2019-05-01T02:24:03.830Z,96.582031
2019-05-01T02:25:13.404Z,96.478271
2019-05-01T02:26:22.931Z,96.478271
2019-05-01T02:27:32.432Z,96.582031
2019-05-01T02:28:41.929Z,96.478271
2019-05-01T02:29:51.432Z,96.270752
2019-05-01T02:31:00.985Z,96.270752
2019-05-01T02:32:10.524Z,96.063232
2019-05-01T02:33:20.031Z,95.855713
2019-05-01T02:34:29.574Z,95.855713
2019-05-01T02:35:39.104Z,96.063232
2019-05-01T02:36:48.612Z,96.166992
2019-05-01T02:37:58.136Z,96.270752
2019-05-01T02:39:07.649Z,96.374512
2019-05-01T02:40:17.151Z,96.374512
2019-05-01T02:41:26.690Z,96.374512
2019-05-01T02:42:37.194Z,96.270752
2019-05-01T02:43:46.721Z,96.166992
2019-05-01T02:44:56.241Z,96.063232
2019-05-01T02:46:05.768Z,95.959473
2019-05-01T02:47:15.311Z,95.855713
2019-05-01T02:48:24.831Z,95.855713
2019-05-01T02:49:34.353Z,95.904541
2019-05-01T02:50:43.870Z,95.904541
2019-05-01T02:51:53.392Z,96.008301
2019-05-01T02:53:02.926Z,96.112061
2019-05-01T02:54:12.449Z,96.112061
2019-05-01T02:55:21.956Z,96.008301
2019-05-01T02:56:31.496Z,96.112061
2019-05-01T02:57:41.022Z,96.313477
2019-05-01T02:58:50.550Z,96.417236
2019-05-01T03:00:00.086Z,96.313477
2019-05-01T03:01:09.606Z,96.313477
2019-05-01T03:02:19.113Z,96.313477
2019-05-01T03:03:28.617Z,96.313477
2019-05-01T03:04:38.128Z,96.313477
2019-05-01T03:05:47.661Z,96.313477
2019-05-01T03:06:57.179Z,96.466064
2019-05-01T03:08:06.692Z,96.417236
2019-05-01T03:09:16.213Z,96.417236
2019-05-01T03:10:25.744Z,96.362305
2019-05-01T03:11:35.274Z,96.362305
2019-05-01T03:12:44.809Z,96.362305
2019-05-01T03:13:54.358Z,96.362305
2019-05-01T03:15:03.961Z,96.362305
2019-05-01T03:16:13.408Z,96.362305
2019-05-01T03:17:22.925Z,96.362305
2019-05-01T03:18:32.451Z,96.258545
2019-05-01T03:19:41.975Z,96.362305
2019-05-01T03:20:51.509Z,96.466064
2019-05-01T03:22:01.081Z,96.466064
2019-05-01T03:23:10.615Z,96.508789
2019-05-01T03:24:20.142Z,96.612549
2019-05-01T03:25:29.660Z,96.612549
2019-05-01T03:26:39.202Z,96.716309
2019-05-01T03:27:48.738Z,96.923828
2019-05-01T03:28:59.259Z,96.923828
2019-05-01T03:30:08.787Z,96.923828
2019-05-01T03:31:18.333Z,96.923828
2019-05-01T03:32:27.831Z,96.923828
2019-05-01T03:33:37.369Z,96.820068
2019-05-01T03:34:52.205Z,96.820068
2019-05-01T03:35:57.379Z,96.820068
2019-05-01T03:37:06.917Z,96.923828
2019-05-01T03:38:16.428Z,97.070312
2019-05-01T03:39:25.944Z,97.174072
2019-05-01T03:40:35.477Z,97.277832
2019-05-01T03:41:45.018Z,97.277832
2019-05-01T03:42:54.563Z,97.277832
2019-05-01T03:44:04.080Z,97.277832
2019-05-01T03:45:13.591Z,97.381592
2019-05-01T03:46:23.094Z,97.381592
2019-05-01T03:47:32.639Z,97.485352
2019-05-01T03:48:42.153Z,97.589111
2019-05-01T03:49:51.682Z,97.589111
2019-05-01T03:51:01.204Z,97.485352
2019-05-01T03:52:10.733Z,97.381592
2019-05-01T03:53:20.251Z,97.381592
2019-05-01T03:54:29.778Z,97.485352
2019-05-01T03:55:39.285Z,97.589111
2019-05-01T03:56:48.824Z,97.692871
2019-05-01T03:57:58.312Z,97.692871
2019-05-01T03:59:07.831Z,97.692871
2019-05-01T04:00:17.349Z,97.692871
2019-05-01T04:01:26.916Z,97.692871
2019-05-01T04:02:36.419Z,97.796631
2019-05-01T04:03:45.931Z,97.692871
2019-05-01T04:04:55.476Z,97.692871
2019-05-01T04:06:04.995Z,97.692871
2019-05-01T04:07:14.537Z,97.589111
2019-05-01T04:08:24.155Z,97.589111
2019-05-01T04:09:33.693Z,97.589111
2019-05-01T04:10:43.196Z,97.589111
2019-05-01T04:11:52.738Z,97.589111
2019-05-01T04:13:02.270Z,97.485352
2019-05-01T04:14:11.787Z,97.381592
2019-05-01T04:15:21.319Z,97.381592
2019-05-01T04:16:30.834Z,97.381592
2019-05-01T04:17:40.348Z,97.277832
2019-05-01T04:18:49.861Z,97.174072
2019-05-01T04:19:59.377Z,96.966553
2019-05-01T04:21:08.906Z,96.966553
2019-05-01T04:22:18.451Z,96.862793
2019-05-01T04:23:27.961Z,96.862793
2019-05-01T04:24:37.484Z,96.862793
2019-05-01T04:25:47.022Z,96.759033
2019-05-01T04:26:56.548Z,96.759033
2019-05-01T04:28:06.090Z,96.759033
2019-05-01T04:29:15.626Z,96.759033
2019-05-01T04:30:25.158Z,96.612549
2019-05-01T04:31:34.669Z,96.508789
2019-05-01T04:32:52.381Z,96.405029
2019-05-01T04:33:54.656Z,96.405029
2019-05-01T04:35:04.205Z,96.405029
2019-05-01T04:36:13.748Z,96.30127
2019-05-01T04:37:24.241Z,96.19751
2019-05-01T04:38:33.764Z,96.19751
2019-05-01T04:39:43.289Z,95.98999
2019-05-01T04:40:52.794Z,95.88623
2019-05-01T04:42:02.328Z,95.739746
2019-05-01T04:43:11.850Z,95.635986
2019-05-01T04:44:21.364Z,95.532227
2019-05-01T04:45:30.886Z,95.428467
2019-05-01T04:46:40.412Z,95.324707
2019-05-01T04:47:49.952Z,95.220947
2019-05-01T04:48:59.475Z,95.117188
2019-05-01T04:50:08.974Z,94.909668
2019-05-01T04:51:18.499Z,94.805908
2019-05-01T04:52:28.029Z,94.555664
2019-05-01T04:53:37.569Z,94.451904
2019-05-01T04:54:47.110Z,94.348145
2019-05-01T04:55:56.623Z,94.244385
2019-05-01T04:57:06.162Z,94.140625
2019-05-01T04:58:15.671Z,94.140625
2019-05-01T04:59:25.188Z,94.140625
2019-05-01T05:00:34.703Z,94.036865
2019-05-01T05:01:44.203Z,93.933105
2019-05-01T05:03:04.007Z,93.933105
2019-05-01T05:04:04.237Z,93.786621
2019-05-01T05:05:13.790Z,93.786621
2019-05-01T05:06:23.315Z,93.682861
2019-05-01T05:07:32.877Z,93.579102
2019-05-01T05:08:42.403Z,93.475342
2019-05-01T05:09:51.907Z,93.371582
2019-05-01T05:11:01.428Z,93.267822
2019-05-01T05:12:11.035Z,93.121338
2019-05-01T05:13:20.543Z,93.017578
2019-05-01T05:14:30.072Z,92.810059
2019-05-01T05:15:39.582Z,92.810059
2019-05-01T05:16:49.082Z,92.712402
2019-05-01T05:17:58.664Z,92.608643
2019-05-01T05:19:08.177Z,92.669678
2019-05-01T05:20:17.683Z,92.669678
2019-05-01T05:21:27.206Z,92.565918
2019-05-01T05:22:36.736Z,92.254639
2019-05-01T05:23:46.235Z,92.254639
2019-05-01T05:24:55.757Z,92.254639
2019-05-01T05:26:05.303Z,92.108154
2019-05-01T05:27:14.810Z,92.004395
2019-05-01T05:28:24.354Z,92.004395
2019-05-01T05:29:34.852Z,91.693115
2019-05-01T05:30:44.365Z,91.589355
2019-05-01T05:31:53.866Z,91.693115
2019-05-01T05:33:03.405Z,91.546631
2019-05-01T05:34:13.924Z,91.339111
2019-05-01T05:35:23.435Z,91.131592
2019-05-01T05:36:32.956Z,90.826416
2019-05-01T05:37:42.477Z,90.679932
2019-05-01T05:38:52.004Z,90.576172
2019-05-01T05:40:01.505Z,90.576172
2019-05-01T05:41:11.010Z,90.368652
2019-05-01T05:42:20.546Z,90.118408
2019-05-01T05:43:30.057Z,89.709473
2019-05-01T05:44:39.583Z,89.813232
2019-05-01T05:45:49.114Z,89.562988
2019-05-01T05:46:58.631Z,89.459229
2019-05-01T05:48:08.149Z,89.355469
2019-05-01T05:49:17.683Z,89.154053
2019-05-01T05:50:28.188Z,88.696289
2019-05-01T05:51:37.687Z,88.183594
2019-05-01T05:52:47.189Z,87.353516
2019-05-01T05:53:56.719Z,87.005615
2019-05-01T05:55:06.238Z,87.005615
2019-05-01T05:56:15.762Z,86.49292
2019-05-01T05:57:25.264Z,86.553955
2019-05-01T05:58:34.781Z,86.346436
2019-05-01T05:59:44.291Z,85.83374
2019-05-01T06:00:53.829Z,84.967041
2019-05-01T06:02:03.320Z,84.967041
2019-05-01T06:03:13.845Z,84.7229
2019-05-01T06:04:24.385Z,83.898926
2019-05-01T06:05:33.918Z,84.002686
2019-05-01T06:06:43.440Z,84.106445
2019-05-01T06:07:52.968Z,83.447266
2019-05-01T06:09:02.507Z,83.654785
2019-05-01T06:10:13.009Z,83.14209
2019-05-01T06:11:23.511Z,82.629395
2019-05-01T06:12:34.019Z,81.970215
2019-05-01T06:13:44.553Z,82.281494
2019-05-01T06:14:55.077Z,81.665039
2019-05-01T06:16:05.590Z,81.829834
2019-05-01T06:17:16.092Z,81.726074
2019-05-01T06:18:26.613Z,80.493164
2019-05-01T06:19:37.132Z,79.840088
2019-05-01T06:20:46.653Z,79.431152
2019-05-01T06:21:56.166Z,79.736328
2019-05-01T06:23:05.675Z,79.119873
2019-05-01T06:24:15.192Z,79.016113
2019-05-01T06:25:25.320Z,79.119873
2019-05-01T06:26:37.200Z,78.881836
2019-05-01T06:27:44.941Z,78.466797
2019-05-01T06:28:55.845Z,77.850342
2019-05-01T06:30:06.442Z,77.813721
2019-05-01T06:31:17.620Z,77.91748
2019-05-01T06:32:28.706Z,78.02124
2019-05-01T06:33:43.987Z,77.062988
2019-05-01T06:34:47.639Z,76.342773
2019-05-01T06:35:57.146Z,76.647949
2019-05-01T06:37:06.667Z,76.104736
2019-05-01T06:38:16.179Z,74.975586
2019-05-01T06:39:25.718Z,75.384521
2019-05-01T06:40:35.332Z,74.835205
2019-05-01T06:41:44.846Z,75.45166
2019-05-01T06:42:54.376Z,74.32251
2019-05-01T06:44:04.382Z,73.980713
2019-05-01T06:45:16.730Z,74.188232
2019-05-01T06:46:27.146Z,73.4375
2019-05-01T06:47:33.397Z,71.691895
2019-05-01T06:48:42.905Z,71.966553
2019-05-01T06:49:53.402Z,71.5271
2019-05-01T06:51:03.916Z,70.397949
2019-05-01T06:52:13.455Z,69.787598
2019-05-01T06:53:22.988Z,69.683838
2019-05-01T06:54:32.502Z,69.171143
2019-05-01T06:55:42.032Z,69.683838
2019-05-01T06:56:51.550Z,69.750977
2019-05-01T06:58:01.054Z,69.65332
2019-05-01T06:59:10.579Z,69.311523
2019-05-01T07:00:20.115Z,68.493652
2019-05-01T07:01:29.628Z,68.157959
2019-05-01T07:02:39.154Z,67.645264
2019-05-01T07:04:02.435Z,66.522217
2019-05-01T07:04:59.150Z,65.600586
2019-05-01T07:06:14.204Z,65.570068
2019-05-01T07:07:24.880Z,65.570068
2019-05-01T07:08:34.156Z,64.825439
2019-05-01T07:09:39.122Z,64.929199
2019-05-01T07:10:49.616Z,64.898682
2019-05-01T07:11:59.114Z,63.598633
2019-05-01T07:13:08.614Z,64.282227
2019-05-01T07:14:18.117Z,64.691162
2019-05-01T07:15:28.434Z,63.671875
2019-05-01T07:16:37.909Z,64.355469
2019-05-01T07:17:47.709Z,64.019775
2019-05-01T07:18:57.950Z,62.896729
2019-05-01T07:20:06.638Z,62.359619
2019-05-01T07:21:17.145Z,60.760498
2019-05-01T07:22:27.681Z,62.390137
2019-05-01T07:23:37.201Z,61.981201
2019-05-01T07:24:48.935Z,63.201904
2019-05-01T07:25:56.241Z,62.390137
2019-05-01T07:27:05.831Z,61.877441
2019-05-01T07:28:15.351Z,62.109375
2019-05-01T07:29:24.871Z,61.804199
2019-05-01T07:30:34.421Z,62.390137
2019-05-01T07:31:44.943Z,62.182617
2019-05-01T07:32:54.610Z,60.424805
2019-05-01T07:34:15.975Z,61.138916
2019-05-01T07:35:14.697Z,60.321045
2019-05-01T07:36:24.202Z,61.035156
2019-05-01T07:37:33.764Z,60.424805
2019-05-01T07:38:43.298Z,60.699463
2019-05-01T07:39:52.788Z,58.972168
2019-05-01T07:41:03.245Z,59.753418
2019-05-01T07:42:12.329Z,58.709717
2019-05-01T07:43:23.875Z,58.709717
2019-05-01T07:44:33.751Z,57.4646
2019-05-01T07:45:43.448Z,58.074951
2019-05-01T07:46:54.002Z,58.477783
2019-05-01T07:48:05.534Z,56.750488
2019-05-01T07:49:12.968Z,56.646729
2019-05-01T07:50:28.513Z,56.036377
2019-05-01T07:51:33.013Z,56.243896
2019-05-01T07:52:42.653Z,55.908203
2019-05-01T07:53:53.196Z,56.420898
2019-05-01T07:55:03.739Z,56.115723
2019-05-01T07:56:13.260Z,56.085205
2019-05-01T07:57:23.240Z,55.175781
2019-05-01T07:58:32.385Z,54.589844
2019-05-01T07:59:41.986Z,54.663086
2019-05-01T08:00:51.508Z,54.742432
2019-05-01T08:02:01.055Z,53.69873
2019-05-01T08:03:10.631Z,52.886963
2019-05-01T08:04:34.791Z,51.568604
2019-05-01T08:05:31.087Z,51.977539
2019-05-01T08:06:40.689Z,53.216553
2019-05-01T08:07:50.243Z,53.295898
2019-05-01T08:08:59.805Z,52.862549
2019-05-01T08:10:09.330Z,52.532959
2019-05-01T08:11:19.008Z,52.508545
2019-05-01T08:12:28.596Z,51.446533
2019-05-01T08:13:38.118Z,50.006104
2019-05-01T08:14:51.975Z,48.260498
2019-05-01T08:16:01.941Z,47.351074
2019-05-01T08:17:12.734Z,49.273682
2019-05-01T08:18:18.376Z,49.859619
2019-05-01T08:19:28.967Z,48.724365
2019-05-01T08:20:39.489Z,49.407959
2019-05-01T08:21:49.986Z,48.168945
2019-05-01T08:23:00.483Z,44.73877
2019-05-01T08:24:10.970Z,46.374512
2019-05-01T08:25:21.485Z,46.173096
2019-05-01T08:26:31.997Z,47.161865
2019-05-01T08:27:42.511Z,45.825195
2019-05-01T08:28:53.027Z,45.825195
2019-05-01T08:30:02.528Z,45.501709
2019-05-01T08:31:12.070Z,45.404053
2019-05-01T08:32:21.593Z,44.494629
2019-05-01T08:33:31.088Z,43.804932
2019-05-01T08:34:48.662Z,41.687012
2019-05-01T08:35:51.107Z,42.840576
2019-05-01T08:37:00.617Z,44.476318
2019-05-01T08:38:11.129Z,43.890381
2019-05-01T08:39:20.639Z,44.598389
2019-05-01T08:40:30.137Z,45.184326
2019-05-01T08:41:40.667Z,43.261719
2019-05-01T08:42:50.187Z,44.519043
2019-05-01T08:43:59.699Z,44.415283
2019-05-01T08:45:09.213Z,44.616699
2019-05-01T08:46:18.713Z,44.396973
2019-05-01T08:47:29.225Z,44.396973
2019-05-01T08:48:38.759Z,45.98999
2019-05-01T08:49:50.487Z,44.049072
2019-05-01T08:50:59.041Z,43.200684
2019-05-01T08:52:11.283Z,42.474365
2019-05-01T08:53:17.967Z,41.247559
2019-05-01T08:54:28.806Z,41.003418
2019-05-01T08:55:39.755Z,41.790771
2019-05-01T08:56:52.866Z,42.675781
2019-05-01T08:57:59.754Z,41.75415
2019-05-01T08:59:09.307Z,41.650391
2019-05-01T09:00:18.839Z,40.643311
2019-05-01T09:01:28.365Z,40.844727
2019-05-01T09:02:41.457Z,40.527344
2019-05-01T09:03:49.617Z,39.398193
2019-05-01T09:05:02.269Z,39.300537
2019-05-01T09:06:09.319Z,39.501953
2019-05-01T09:07:20.309Z,39.398193
2019-05-01T09:08:31.936Z,38.793945
2019-05-01T09:09:39.551Z,37.70752
2019-05-01T09:10:49.713Z,37.322998
2019-05-01T09:11:59.826Z,37.628174
2019-05-01T09:13:10.360Z,38.128662
2019-05-01T09:14:19.879Z,37.322998
2019-05-01T09:15:29.397Z,36.218262
2019-05-01T09:16:38.913Z,36.755371
2019-05-01T09:17:48.421Z,38.690186
2019-05-01T09:18:57.928Z,38.299561
2019-05-01T09:20:07.433Z,38.500977
2019-05-01T09:21:16.972Z,40.197754
2019-05-01T09:22:26.531Z,38.067627
2019-05-01T09:23:36.070Z,37.341309
2019-05-01T09:24:45.581Z,35.211182
2019-05-01T09:25:55.108Z,34.289551
2019-05-01T09:27:04.652Z,35.27832
2019-05-01T09:28:14.211Z,36.486816
2019-05-01T09:29:23.773Z,33.953857
2019-05-01T09:30:33.273Z,36.16333
2019-05-01T09:31:42.809Z,34.057617
2019-05-01T09:32:54.326Z,35.144043
2019-05-01T09:34:01.824Z,36.065674
2019-05-01T09:35:15.677Z,35.864258
2019-05-01T09:36:20.883Z,36.669922
2019-05-01T09:37:30.391Z,38.256836
2019-05-01T09:38:39.892Z,35.443115
2019-05-01T09:39:49.382Z,34.625244
2019-05-01T09:40:58.884Z,32.519531
2019-05-01T09:42:08.423Z,31.817627
2019-05-01T09:43:17.931Z,31.817627
2019-05-01T09:44:27.449Z,33.117676
2019-05-01T09:45:36.958Z,32.434082
2019-05-01T09:46:46.495Z,32.751465
2019-05-01T09:47:56.020Z,33.587646
2019-05-01T09:49:05.530Z,34.558105
2019-05-01T09:50:15.051Z,35.27832
2019-05-01T09:51:24.567Z,36.791992
2019-05-01T09:52:34.109Z,39.190674
2019-05-01T09:53:44.594Z,37.445068
2019-05-01T09:54:54.098Z,37.445068
2019-05-01T09:56:07.630Z,38.031006
2019-05-01T09:57:14.116Z,37.207031
2019-05-01T09:58:23.644Z,36.114502
2019-05-01T09:59:33.211Z,37.70752
2019-05-01T10:00:42.735Z,38.793945
2019-05-01T10:01:53.240Z,35.046387
2019-05-01T10:03:02.757Z,35.748291
2019-05-01T10:04:12.282Z,36.315918
2019-05-01T10:05:28.579Z,34.191895
2019-05-01T10:06:32.302Z,34.393311
2019-05-01T10:07:41.840Z,34.606934
2019-05-01T10:08:51.355Z,33.825684
2019-05-01T10:10:00.862Z,34.143066
2019-05-01T10:11:10.423Z,33.319092
2019-05-01T10:12:19.955Z,33.319092
2019-05-01T10:13:29.470Z,35.827637
2019-05-01T10:14:38.985Z,34.008789
2019-05-01T10:15:48.502Z,33.691406
2019-05-01T10:16:58.035Z,31.481934
2019-05-01T10:18:07.584Z,32.489014
2019-05-01T10:19:17.128Z,32.299805
2019-05-01T10:20:26.643Z,32.489014
2019-05-01T10:21:36.164Z,33.203125
2019-05-01T10:22:45.676Z,34.106445
2019-05-01T10:23:55.224Z,35.296631
2019-05-01T10:25:08.459Z,33.47168
2019-05-01T10:26:18.928Z,34.161377
2019-05-01T10:27:25.775Z,35.046387
2019-05-01T10:28:36.313Z,34.326172
2019-05-01T10:29:45.816Z,32.824707
2019-05-01T10:30:55.378Z,32.354736
2019-05-01T10:32:04.954Z,33.691406
2019-05-01T10:33:14.550Z,33.105469
2019-05-01T10:34:24.167Z,35.113525
2019-05-01T10:35:42.191Z,34.289551
2019-05-01T10:36:44.177Z,35.180664
2019-05-01T10:37:54.743Z,33.856201
2019-05-01T10:39:04.295Z,33.1604
2019-05-01T10:40:13.816Z,33.355713
2019-05-01T10:41:23.328Z,32.043457
2019-05-01T10:42:32.959Z,34.143066
2019-05-01T10:43:42.482Z,32.727051
2019-05-01T10:44:53.079Z,31.610107
2019-05-01T10:46:02.665Z,29.608154
2019-05-01T10:47:12.279Z,30.706787
2019-05-01T10:48:21.819Z,30.706787
2019-05-01T10:49:31.371Z,29.620361
2019-05-01T10:50:40.970Z,31.408691
2019-05-01T10:51:50.523Z,30.310059
2019-05-01T10:53:00.126Z,30.438232
2019-05-01T10:54:09.663Z,30.13916
2019-05-01T10:55:19.183Z,29.425049
2019-05-01T10:56:28.818Z,31.121826
2019-05-01T10:57:40.096Z,29.01001
2019-05-01T10:58:47.846Z,27.923584
2019-05-01T10:59:57.402Z,28.961182
2019-05-01T11:01:06.955Z,30.810547
2019-05-01T11:02:16.483Z,32.58667
2019-05-01T11:03:26.045Z,33.276367
2019-05-01T11:04:35.569Z,32.525635
2019-05-01T11:05:55.179Z,31.109619
2019-05-01T11:06:55.627Z,30.993652
2019-05-01T11:08:05.144Z,30.792236
2019-05-01T11:09:14.743Z,31.57959
2019-05-01T11:10:24.338Z,31.677246
2019-05-01T11:11:33.846Z,31.164551
2019-05-01T11:12:43.409Z,29.382324
2019-05-01T11:13:52.998Z,29.211426
2019-05-01T11:15:02.512Z,30.706787
2019-05-01T11:16:12.111Z,33.111572
2019-05-01T11:17:21.622Z,30.609131
2019-05-01T11:18:31.140Z,30.310059
2019-05-01T11:19:40.688Z,31.121826
2019-05-01T11:20:50.264Z,30.535889
2019-05-01T11:21:59.778Z,30.523682
2019-05-01T11:23:09.352Z,32.208252
2019-05-01T11:24:18.973Z,30.810547
2019-05-01T11:25:28.473Z,31.292725
2019-05-01T11:26:37.976Z,30.224609
2019-05-01T11:27:47.560Z,29.23584
2019-05-01T11:28:57.117Z,30.151367
2019-05-01T11:30:06.656Z,30.950928
2019-05-01T11:31:16.185Z,29.23584
2019-05-01T11:32:25.762Z,31.323242
2019-05-01T11:33:35.280Z,30.621338
2019-05-01T11:34:44.890Z,29.425049
2019-05-01T11:35:54.425Z,29.852295
2019-05-01T11:37:04.955Z,30.163574
2019-05-01T11:38:14.462Z,31.054688
2019-05-01T11:39:24.973Z,31.92749
2019-05-01T11:40:34.488Z,32.592773
2019-05-01T11:41:44.003Z,30.963135
2019-05-01T11:42:53.600Z,29.522705
2019-05-01T11:44:03.177Z,28.924561
2019-05-01T11:45:12.689Z,28.997803
2019-05-01T11:46:22.203Z,29.296875
2019-05-01T11:47:31.726Z,27.990723
2019-05-01T11:48:44.197Z,27.374268
2019-05-01T11:49:50.850Z,27.301025
2019-05-01T11:51:00.367Z,27.813721
2019-05-01T11:52:09.890Z,27.801514
2019-05-01T11:53:19.480Z,28.198242
2019-05-01T11:54:29.011Z,28.497314
2019-05-01T11:55:38.522Z,27.587891
2019-05-01T11:56:48.047Z,27.972412
2019-05-01T11:57:57.650Z,29.052734
2019-05-01T11:59:07.169Z,27.264404
2019-05-01T12:00:16.687Z,26.855469
2019-05-01T12:01:26.191Z,27.062988
2019-05-01T12:02:36.702Z,26.739502
2019-05-01T12:03:46.242Z,26.257324
2019-05-01T12:04:55.789Z,26.855469
2019-05-01T12:06:05.351Z,26.147461
2019-05-01T12:07:15.909Z,26.428223
2019-05-01T12:08:25.430Z,26.019287
2019-05-01T12:09:35.845Z,25.872803
2019-05-01T12:10:45.379Z,27.142334
2019-05-01T12:11:54.910Z,28.240967
2019-05-01T12:13:04.455Z,27.630615
2019-05-01T12:14:13.964Z,27.728271
2019-05-01T12:15:23.505Z,27.813721
2019-05-01T12:16:33.031Z,28.186035
2019-05-01T12:17:42.541Z,26.867676
2019-05-01T12:18:52.088Z,26.068115
2019-05-01T12:20:01.620Z,25.286865
2019-05-01T12:21:11.141Z,25.164795
2019-05-01T12:22:20.669Z,25.744629
2019-05-01T12:23:30.206Z,25.720215
2019-05-01T12:24:39.745Z,26.501465
2019-05-01T12:25:49.322Z,25.512695
2019-05-01T12:26:58.834Z,24.804688
2019-05-01T12:28:08.383Z,25.079346
2019-05-01T12:29:17.899Z,23.565674
2019-05-01T12:30:27.499Z,23.504639
2019-05-01T12:31:37.005Z,24.804688
2019-05-01T12:32:46.533Z,23.803711
2019-05-01T12:33:56.056Z,23.803711
2019-05-01T12:35:05.576Z,22.906494
2019-05-01T12:36:15.099Z,24.163818
2019-05-01T12:37:24.622Z,22.381592
2019-05-01T12:38:34.152Z,22.98584
2019-05-01T12:39:43.666Z,22.094727
2019-05-01T12:40:53.183Z,22.576904
2019-05-01T12:42:02.698Z,22.161865
2019-05-01T12:43:12.470Z,21.350098
2019-05-01T12:44:21.749Z,21.66748
2019-05-01T12:45:31.386Z,22.558594
2019-05-01T12:46:40.918Z,22.851562
2019-05-01T12:47:50.439Z,22.369385
2019-05-01T12:48:59.987Z,22.833252
2019-05-01T12:50:09.499Z,21.42334
2019-05-01T12:51:19.055Z,20.733643
2019-05-01T12:52:28.571Z,21.31958
2019-05-01T12:53:38.082Z,20.233154
2019-05-01T12:54:47.628Z,19.549561
2019-05-01T12:55:57.147Z,20.379639
2019-05-01T12:57:06.694Z,20.843506
2019-05-01T12:58:16.217Z,21.173096
2019-05-01T12:59:25.748Z,22.259521
2019-05-01T13:00:35.289Z,23.31543
2019-05-01T13:01:44.795Z,22.290039
2019-05-01T13:02:54.303Z,21.783447
2019-05-01T13:04:03.831Z,22.369385
2019-05-01T13:05:13.362Z,22.546387
2019-05-01T13:06:22.891Z,21.832275
2019-05-01T13:07:32.422Z,21.557617
2019-05-01T13:08:41.927Z,21.54541
2019-05-01T13:09:51.447Z,20.666504
2019-05-01T13:11:01.162Z,20.965576
2019-05-01T13:12:10.687Z,20.776367
2019-05-01T13:13:20.206Z,21.386719
2019-05-01T13:14:29.731Z,20.88623
2019-05-01T13:15:39.253Z,21.563721
2019-05-01T13:16:48.810Z,20.861816